createdAt,value
2017-09-19T00:01:15.316Z,100202.17
2017-09-19T00:03:44.413Z,100209.52
2017-09-19T00:06:13.504Z,100203.34
2017-09-19T00:08:42.577Z,100204.08
2017-09-19T00:11:11.653Z,100207.08
2017-09-19T00:13:40.728Z,100200.84
2017-09-19T00:16:09.799Z,100206.91
2017-09-19T00:18:38.880Z,100200.55
2017-09-19T00:21:07.961Z,100206.16
2017-09-19T00:23:37.012Z,100204.39
2017-09-19T00:26:06.869Z,100203.37
2017-09-19T00:28:35.926Z,100204.42
2017-09-19T00:31:05.759Z,100199.70
2017-09-19T00:33:34.834Z,100198.86
2017-09-19T00:36:04.655Z,100203.52
2017-09-19T00:38:34.493Z,100200.05
2017-09-19T00:41:03.580Z,100196.87
2017-09-19T00:43:32.649Z,100186.77
2017-09-19T00:46:02.498Z,100192.72
2017-09-19T00:48:31.568Z,100188.06
2017-09-19T00:51:00.647Z,100182.22
2017-09-19T00:53:29.695Z,100185.74
2017-09-19T00:55:58.802Z,100188.38
2017-09-19T00:58:27.869Z,100186.11
2017-09-19T01:00:56.928Z,100185.59
2017-09-19T01:03:26.764Z,100186.70
2017-09-19T01:05:56.601Z,100180.91
2017-09-19T01:08:25.665Z,100186.98
2017-09-19T01:10:55.489Z,100185.52
2017-09-19T01:13:24.568Z,100188.63
2017-09-19T01:15:54.400Z,100189.71
2017-09-19T01:18:23.476Z,100183.47
2017-09-19T01:20:53.458Z,100183.87
2017-09-19T01:23:22.553Z,100183.64
2017-09-19T01:25:51.657Z,100184.95
2017-09-19T01:28:20.729Z,100186.05
2017-09-19T01:30:49.796Z,100192.47
2017-09-19T01:33:18.872Z,100180.60
2017-09-19T01:35:48.700Z,100185.91
2017-09-19T01:38:17.768Z,100181.73
2017-09-19T01:40:47.641Z,100190.45
2017-09-19T01:43:16.699Z,100189.88
2017-09-19T01:45:45.760Z,100187.09
2017-09-19T01:48:14.861Z,100190.51
2017-09-19T01:50:43.925Z,100189.59
2017-09-19T01:53:13.041Z,100188.97
2017-09-19T01:55:42.093Z,100185.05
2017-09-19T01:58:11.145Z,100184.38
2017-09-19T02:00:40.231Z,100181.37
2017-09-19T02:03:09.327Z,100184.74
2017-09-19T02:05:38.406Z,100181.31
2017-09-19T02:08:07.444Z,100185.00
2017-09-19T02:10:37.484Z,100179.69
2017-09-19T02:13:07.297Z,100186.59
2017-09-19T02:15:36.419Z,100179.61
2017-09-19T02:18:05.482Z,100183.36
2017-09-19T02:20:34.571Z,100181.77
2017-09-19T02:23:03.629Z,100186.08
2017-09-19T02:25:32.685Z,100190.73
2017-09-19T02:28:01.749Z,100189.83
2017-09-19T02:30:30.823Z,100190.05
2017-09-19T02:33:00.646Z,100185.66
2017-09-19T02:35:30.512Z,100185.88
2017-09-19T02:38:00.427Z,100187.08
2017-09-19T02:40:29.471Z,100188.89
2017-09-19T02:42:59.316Z,100188.78
2017-09-19T02:45:28.376Z,100196.95
2017-09-19T02:47:58.253Z,100188.38
2017-09-19T02:50:27.312Z,100192.47
2017-09-19T02:52:56.374Z,100187.13
2017-09-19T02:55:25.437Z,100184.98
2017-09-19T02:57:54.503Z,100191.73
2017-09-19T03:00:23.576Z,100186.91
2017-09-19T03:02:53.438Z,100187.47
2017-09-19T03:05:22.529Z,100186.00
2017-09-19T03:07:51.620Z,100182.53
2017-09-19T03:10:20.670Z,100186.48
2017-09-19T03:12:50.493Z,100184.29
2017-09-19T03:15:19.569Z,100188.34
2017-09-19T03:17:49.437Z,100185.23
2017-09-19T03:20:18.527Z,100180.60
2017-09-19T03:22:47.591Z,100179.16
2017-09-19T03:25:16.673Z,100184.31
2017-09-19T03:27:45.735Z,100178.47
2017-09-19T03:30:14.814Z,100178.95
2017-09-19T03:32:43.878Z,100184.12
2017-09-19T03:35:13.114Z,100183.84
2017-09-19T03:37:42.217Z,100187.64
2017-09-19T03:40:11.271Z,100191.47
2017-09-19T03:42:40.353Z,100189.94
2017-09-19T03:45:10.182Z,100185.05
2017-09-19T03:47:39.242Z,100186.47
2017-09-19T03:50:08.334Z,100181.59
2017-09-19T03:52:37.507Z,100187.27
2017-09-19T03:55:06.869Z,100181.84
2017-09-19T03:57:35.944Z,100192.44
2017-09-19T04:00:05.789Z,100191.70
2017-09-19T04:02:34.872Z,100192.60
2017-09-19T04:05:03.945Z,100193.70
2017-09-19T04:07:33.038Z,100198.42
2017-09-19T04:10:02.869Z,100201.09
2017-09-19T04:12:31.947Z,100201.48
2017-09-19T04:15:01.788Z,100197.28
2017-09-19T04:17:30.857Z,100201.94
2017-09-19T04:20:00.697Z,100200.80
2017-09-19T04:22:30.545Z,100200.46
2017-09-19T04:24:59.608Z,100207.98
2017-09-19T04:27:28.716Z,100210.42
2017-09-19T04:29:57.769Z,100209.55
2017-09-19T04:32:27.595Z,100208.01
2017-09-19T04:34:57.446Z,100212.98
2017-09-19T04:37:26.517Z,100217.19
2017-09-19T04:39:55.592Z,100218.08
2017-09-19T04:42:25.464Z,100217.48
2017-09-19T04:44:55.465Z,100225.86
2017-09-19T04:47:24.561Z,100223.08
2017-09-19T04:49:53.639Z,100231.48
2017-09-19T04:52:22.738Z,100234.48
2017-09-19T04:54:51.811Z,100230.22
2017-09-19T04:57:21.615Z,100233.26
2017-09-19T04:59:51.478Z,100233.01
2017-09-19T05:02:20.537Z,100231.16
2017-09-19T05:04:50.405Z,100241.13
2017-09-19T05:07:19.512Z,100243.47
2017-09-19T05:09:48.588Z,100242.68
2017-09-19T05:12:17.660Z,100239.82
2017-09-19T05:14:46.712Z,100242.66
2017-09-19T05:17:16.545Z,100242.69
2017-09-19T05:19:45.628Z,100245.28
2017-09-19T05:22:14.696Z,100249.71
2017-09-19T05:24:43.787Z,100245.59
2017-09-19T05:27:12.826Z,100251.73
2017-09-19T05:29:41.921Z,100251.73
2017-09-19T05:32:10.994Z,100247.44
2017-09-19T05:34:40.050Z,100254.26
2017-09-19T05:37:09.140Z,100254.59
2017-09-19T05:39:38.199Z,100256.02
2017-09-19T05:42:08.032Z,100259.94
2017-09-19T05:44:37.132Z,100252.33
2017-09-19T05:47:06.184Z,100262.61
2017-09-19T05:49:35.245Z,100263.29
2017-09-19T05:52:04.659Z,100264.06
2017-09-19T05:54:35.570Z,100271.41
2017-09-19T05:57:04.666Z,100270.16
2017-09-19T05:59:33.704Z,100273.94
2017-09-19T06:02:02.799Z,100271.89
2017-09-19T06:04:31.865Z,100275.19
2017-09-19T06:07:01.853Z,100275.62
2017-09-19T06:09:34.545Z,100279.68
2017-09-19T06:12:03.631Z,100278.63
2017-09-19T06:14:32.707Z,100284.08
2017-09-19T06:17:02.581Z,100278.63
2017-09-19T06:19:31.905Z,100283.34
2017-09-19T06:22:01.579Z,100280.90
2017-09-19T06:24:30.673Z,100281.44
2017-09-19T06:26:59.737Z,100285.89
2017-09-19T06:29:28.838Z,100285.83
2017-09-19T06:31:57.941Z,100280.34
2017-09-19T06:34:27.013Z,100291.23
2017-09-19T06:36:56.836Z,100286.50
2017-09-19T06:39:25.908Z,100290.81
2017-09-19T06:41:55.739Z,100287.23
2017-09-19T06:44:24.808Z,100300.09
2017-09-19T06:46:54.747Z,100296.62
2017-09-19T06:49:24.587Z,100298.44
2017-09-19T06:51:53.684Z,100302.77
2017-09-19T06:54:22.750Z,100305.91
2017-09-19T06:56:52.579Z,100306.76
2017-09-19T06:59:21.645Z,100307.95
2017-09-19T07:01:51.483Z,100315.23
2017-09-19T07:04:20.552Z,100308.88
2017-09-19T07:06:50.658Z,100308.88
2017-09-19T07:09:19.717Z,100313.60
2017-09-19T07:11:48.772Z,100321.05
2017-09-19T07:14:18.614Z,100320.27
2017-09-19T07:16:47.696Z,100320.91
2017-09-19T07:19:16.780Z,100324.04
2017-09-19T07:21:46.721Z,100324.30
2017-09-19T07:24:15.813Z,100331.88
2017-09-19T07:26:44.908Z,100332.11
2017-09-19T07:29:13.970Z,100336.44
2017-09-19T07:31:43.814Z,100337.97
2017-09-19T07:34:13.026Z,100350.75
2017-09-19T07:36:42.137Z,100359.88
2017-09-19T07:39:11.469Z,100350.52
2017-09-19T07:41:40.529Z,100351.35
2017-09-19T07:44:09.587Z,100353.86
2017-09-19T07:46:38.665Z,100353.62
2017-09-19T07:49:08.503Z,100363.16
2017-09-19T07:51:37.575Z,100365.44
2017-09-19T07:54:07.418Z,100358.23
2017-09-19T07:56:36.464Z,100361.50
2017-09-19T07:59:05.528Z,100363.63
2017-09-19T08:01:35.387Z,100363.58
2017-09-19T08:04:04.437Z,100360.82
2017-09-19T08:06:33.516Z,100371.30
2017-09-19T08:09:02.590Z,100368.78
2017-09-19T08:11:31.685Z,100365.08
2017-09-19T08:14:00.768Z,100366.61
2017-09-19T08:16:30.649Z,100376.42
2017-09-19T08:18:59.868Z,100373.45
2017-09-19T08:21:29.752Z,100380.45
2017-09-19T08:23:58.846Z,100380.91
2017-09-19T08:26:27.933Z,100384.75
2017-09-19T08:28:57.276Z,100392.70
2017-09-19T08:31:26.313Z,100393.11
2017-09-19T08:33:55.410Z,100387.89
2017-09-19T08:36:24.476Z,100391.88
2017-09-19T08:38:54.309Z,100393.84
2017-09-19T08:41:23.547Z,100390.70
2017-09-19T08:43:52.635Z,100402.17
2017-09-19T08:46:21.692Z,100400.31
2017-09-19T08:48:50.748Z,100406.23
2017-09-19T08:51:19.908Z,100400.08
2017-09-19T08:53:49.330Z,100403.16
2017-09-19T08:56:18.405Z,100407.01
2017-09-19T08:58:47.505Z,100396.95
2017-09-19T09:01:16.564Z,100401.92
2017-09-19T09:03:46.400Z,100400.75
2017-09-19T09:06:15.473Z,100407.84
2017-09-19T09:08:45.283Z,100412.77
2017-09-19T09:11:14.774Z,100401.23
2017-09-19T09:13:43.813Z,100401.86
2017-09-19T09:16:12.906Z,100402.82
2017-09-19T09:18:42.264Z,100408.52
2017-09-19T09:21:11.300Z,100410.59
2017-09-19T09:23:40.411Z,100411.81
2017-09-19T09:26:09.479Z,100408.34
2017-09-19T09:28:38.600Z,100408.12
2017-09-19T09:31:07.649Z,100413.31
2017-09-19T09:33:37.475Z,100414.05
2017-09-19T09:36:06.553Z,100415.73
2017-09-19T09:38:35.611Z,100422.14
2017-09-19T09:41:04.719Z,100419.92
2017-09-19T09:43:33.761Z,100423.51
2017-09-19T09:46:02.849Z,100426.87
2017-09-19T09:48:32.049Z,100423.68
2017-09-19T09:51:01.123Z,100429.41
2017-09-19T09:53:30.982Z,100430.09
2017-09-19T09:56:00.132Z,100433.73
2017-09-19T09:58:29.987Z,100430.34
2017-09-19T10:00:59.053Z,100433.19
2017-09-19T10:03:28.891Z,100425.88
2017-09-19T10:05:57.956Z,100431.05
2017-09-19T10:08:27.797Z,100427.89
2017-09-19T10:10:56.857Z,100428.16
2017-09-19T10:13:26.679Z,100426.55
2017-09-19T10:15:56.516Z,100423.53
2017-09-19T10:18:25.590Z,100429.63
2017-09-19T10:20:55.406Z,100429.05
2017-09-19T10:23:25.245Z,100427.23
2017-09-19T10:25:54.329Z,100434.88
2017-09-19T10:28:23.464Z,100431.22
2017-09-19T10:30:52.532Z,100434.17
2017-09-19T10:33:21.869Z,100427.95
2017-09-19T10:35:51.360Z,100421.72
2017-09-19T10:38:20.663Z,100425.96
2017-09-19T10:40:49.742Z,100427.07
2017-09-19T10:43:18.811Z,100436.30
2017-09-19T10:45:47.885Z,100433.02
2017-09-19T10:48:17.763Z,100439.09
2017-09-19T10:50:47.688Z,100437.78
2017-09-19T10:53:16.756Z,100445.06
2017-09-19T10:55:45.834Z,100443.48
2017-09-19T10:58:14.903Z,100448.95
2017-09-19T11:00:44.758Z,100445.02
2017-09-19T11:03:14.086Z,100439.58
2017-09-19T11:05:43.233Z,100445.70
2017-09-19T11:08:12.458Z,100449.34
2017-09-19T11:10:41.521Z,100445.83
2017-09-19T11:13:11.423Z,100445.67
2017-09-19T11:15:40.482Z,100441.45
2017-09-19T11:18:09.559Z,100446.52
2017-09-19T11:20:38.653Z,100453.80
2017-09-19T11:23:07.716Z,100450.50
2017-09-19T11:25:37.615Z,100445.81
2017-09-19T11:28:06.669Z,100446.86
2017-09-19T11:30:35.750Z,100444.00
2017-09-19T11:33:04.824Z,100448.52
2017-09-19T11:35:33.928Z,100448.43
2017-09-19T11:38:02.978Z,100458.03
2017-09-19T11:40:32.059Z,100457.16
2017-09-19T11:43:01.155Z,100456.80
2017-09-19T11:45:30.222Z,100467.42
2017-09-19T11:47:59.548Z,100463.07
2017-09-19T11:50:28.633Z,100458.97
2017-09-19T11:52:57.743Z,100462.45
2017-09-19T11:55:26.840Z,100461.53
2017-09-19T11:57:55.935Z,100462.84
2017-09-19T12:00:25.009Z,100461.88
2017-09-19T12:02:54.115Z,100467.80
2017-09-19T12:05:23.180Z,100467.97
2017-09-19T12:07:52.528Z,100462.23
2017-09-19T12:10:21.597Z,100459.31
2017-09-19T12:12:50.785Z,100461.88
2017-09-19T12:15:19.865Z,100462.84
2017-09-19T12:17:49.716Z,100463.99
2017-09-19T12:20:19.101Z,100458.61
2017-09-19T12:22:48.912Z,100454.95
2017-09-19T12:25:17.981Z,100463.90
2017-09-19T12:27:47.856Z,100458.84
2017-09-19T12:30:16.923Z,100469.30
2017-09-19T12:32:45.996Z,100467.45
2017-09-19T12:35:15.076Z,100461.70
2017-09-19T12:37:44.906Z,100465.44
2017-09-19T12:40:13.977Z,100468.63
2017-09-19T12:42:43.782Z,100457.76
2017-09-19T12:45:13.911Z,100471.61
2017-09-19T12:47:42.980Z,100464.45
2017-09-19T12:50:12.041Z,100475.95
2017-09-19T12:52:41.133Z,100475.69
2017-09-19T12:55:10.202Z,100474.75
2017-09-19T12:57:40.143Z,100472.80
2017-09-19T13:00:09.179Z,100479.52
2017-09-19T13:02:38.264Z,100483.81
2017-09-19T13:05:07.423Z,100483.16
2017-09-19T13:07:37.226Z,100481.78
2017-09-19T13:10:06.899Z,100476.59
2017-09-19T13:12:35.946Z,100483.52
2017-09-19T13:15:05.025Z,100479.84
2017-09-19T13:17:34.836Z,100478.03
2017-09-19T13:20:03.906Z,100475.87
2017-09-19T13:22:32.999Z,100476.52
2017-09-19T13:25:02.076Z,100475.56
2017-09-19T13:27:31.124Z,100472.19
2017-09-19T13:30:00.217Z,100469.72
2017-09-19T13:32:47.072Z,100468.69
2017-09-19T13:35:16.180Z,100468.44
2017-09-19T13:37:45.228Z,100467.98
2017-09-19T13:40:14.299Z,100466.66
2017-09-19T13:42:44.590Z,100468.69
2017-09-19T13:45:13.669Z,100468.80
2017-09-19T13:47:42.747Z,100474.20
2017-09-19T13:50:12.171Z,100470.48
2017-09-19T13:52:41.308Z,100470.91
2017-09-19T13:55:11.157Z,100461.20
2017-09-19T13:57:40.204Z,100459.90
2017-09-19T14:00:09.299Z,100455.31
2017-09-19T14:02:38.361Z,100456.93
2017-09-19T14:05:07.464Z,100449.57
2017-09-19T14:07:38.149Z,100453.28
2017-09-19T14:10:07.247Z,100453.66
2017-09-19T14:12:36.364Z,100458.53
2017-09-19T14:15:05.418Z,100462.26
2017-09-19T14:17:35.278Z,100460.87
2017-09-19T14:20:04.337Z,100462.64
2017-09-19T14:22:34.304Z,100464.94
2017-09-19T14:25:03.352Z,100463.83
2017-09-19T14:27:33.187Z,100461.64
2017-09-19T14:30:02.283Z,100460.50
2017-09-19T14:32:31.357Z,100457.66
2017-09-19T14:35:01.160Z,100459.77
2017-09-19T14:37:31.246Z,100460.92
2017-09-19T14:40:00.328Z,100463.45
2017-09-19T14:42:29.392Z,100470.34
2017-09-19T14:44:58.488Z,100466.45
2017-09-19T14:47:27.564Z,100466.12
2017-09-19T14:49:57.731Z,100473.91
2017-09-19T14:52:26.778Z,100469.37
2017-09-19T14:54:56.616Z,100463.88
2017-09-19T14:57:25.694Z,100458.11
2017-09-19T14:59:55.528Z,100463.67
2017-09-19T15:02:24.596Z,100467.17
2017-09-19T15:04:54.421Z,100470.92
2017-09-19T15:07:23.522Z,100468.25
2017-09-19T15:09:53.373Z,100465.33
2017-09-19T15:12:22.448Z,100476.30
2017-09-19T15:14:51.509Z,100475.46
2017-09-19T15:17:21.339Z,100482.98
2017-09-19T15:19:50.680Z,100481.78
2017-09-19T15:22:19.783Z,100471.77
2017-09-19T15:24:48.861Z,100477.25
2017-09-19T15:27:17.944Z,100479.38
2017-09-19T15:29:47.015Z,100496.90
2017-09-19T15:32:16.856Z,100483.58
2017-09-19T15:34:45.919Z,100491.56
2017-09-19T15:37:15.769Z,100491.36
2017-09-19T15:39:44.839Z,100495.49
2017-09-19T15:42:13.967Z,100493.86
2017-09-19T15:44:43.045Z,100503.72
2017-09-19T15:47:12.114Z,100503.16
2017-09-19T15:49:41.938Z,100502.08
2017-09-19T15:52:11.282Z,100503.00
2017-09-19T15:54:40.415Z,100515.28
2017-09-19T15:57:10.266Z,100503.12
2017-09-19T15:59:39.378Z,100511.02
2017-09-19T16:02:08.477Z,100514.83
2017-09-19T16:04:37.546Z,100521.98
2017-09-19T16:07:07.385Z,100519.31
2017-09-19T16:09:36.500Z,100525.81
2017-09-19T16:12:06.337Z,100522.85
2017-09-19T16:14:35.396Z,100522.95
2017-09-19T16:17:04.577Z,100525.31
2017-09-19T16:19:33.634Z,100526.76
2017-09-19T16:22:03.484Z,100530.86
2017-09-19T16:24:32.538Z,100528.77
2017-09-19T16:27:02.369Z,100527.55
2017-09-19T16:29:31.501Z,100526.58
2017-09-19T16:32:00.587Z,100534.56
2017-09-19T16:34:29.660Z,100537.55
2017-09-19T16:36:58.748Z,100538.68
2017-09-19T16:39:27.825Z,100543.13
2017-09-19T16:41:57.673Z,100547.81
2017-09-19T16:44:26.756Z,100548.06
2017-09-19T16:46:55.841Z,100553.06
2017-09-19T16:49:25.677Z,100557.08
2017-09-19T16:51:54.753Z,100556.29
2017-09-19T16:54:23.873Z,100560.66
2017-09-19T16:56:52.928Z,100568.69
2017-09-19T16:59:22.025Z,100574.84
2017-09-19T17:01:52.536Z,100575.89
2017-09-19T17:04:21.624Z,100570.02
2017-09-19T17:06:50.708Z,100575.67
2017-09-19T17:09:19.744Z,100574.70
2017-09-19T17:11:49.600Z,100571.22
2017-09-19T17:14:18.657Z,100577.23
2017-09-19T17:16:48.526Z,100582.54
2017-09-19T17:19:17.967Z,100592.92
2017-09-19T17:21:47.005Z,100587.41
2017-09-19T17:24:16.099Z,100597.66
2017-09-19T17:26:45.154Z,100595.63
2017-09-19T17:29:15.044Z,100595.35
2017-09-19T17:31:44.102Z,100600.63
2017-09-19T17:34:13.173Z,100598.73
2017-09-19T17:36:43.012Z,100602.27
2017-09-19T17:39:12.112Z,100597.05
2017-09-19T17:41:41.199Z,100602.52
2017-09-19T17:44:10.244Z,100605.20
2017-09-19T17:46:40.124Z,100608.15
2017-09-19T17:49:09.188Z,100602.22
2017-09-19T17:51:39.048Z,100608.34
2017-09-19T17:54:08.129Z,100609.07
2017-09-19T17:56:37.232Z,100608.69
2017-09-19T17:59:06.307Z,100609.45
2017-09-19T18:01:35.372Z,100618.12
2017-09-19T18:04:04.466Z,100616.77
2017-09-19T18:06:34.276Z,100620.81
2017-09-19T18:09:04.125Z,100623.87
2017-09-19T18:11:33.196Z,100628.45
2017-09-19T18:14:02.280Z,100639.59
2017-09-19T18:16:32.125Z,100626.17
2017-09-19T18:19:01.238Z,100629.77
2017-09-19T18:21:30.326Z,100636.33
2017-09-19T18:23:59.406Z,100639.01
2017-09-19T18:26:28.514Z,100627.08
2017-09-19T18:28:57.645Z,100628.66
2017-09-19T18:31:28.246Z,100634.24
2017-09-19T18:33:57.539Z,100647.17
2017-09-19T18:36:26.644Z,100653.59
2017-09-19T18:38:55.733Z,100654.16
2017-09-19T18:41:24.813Z,100655.70
2017-09-19T18:43:54.665Z,100655.56
2017-09-19T18:46:24.481Z,100660.41
2017-09-19T18:48:53.559Z,100662.77
2017-09-19T18:51:22.673Z,100661.11
2017-09-19T18:53:51.714Z,100666.48
2017-09-19T18:56:20.825Z,100668.34
2017-09-19T18:58:49.918Z,100667.14
2017-09-19T19:01:19.026Z,100664.28
2017-09-19T19:03:48.125Z,100660.28
2017-09-19T19:06:17.247Z,100660.47
2017-09-19T19:08:46.368Z,100664.48
2017-09-19T19:11:16.253Z,100661.83
2017-09-19T19:13:45.504Z,100664.39
2017-09-19T19:16:15.042Z,100678.17
2017-09-19T19:18:44.096Z,100671.06
2017-09-19T19:21:13.200Z,100675.64
2017-09-19T19:23:42.291Z,100675.38
2017-09-19T19:26:12.128Z,100677.09
2017-09-19T19:28:41.255Z,100678.52
2017-09-19T19:31:11.088Z,100677.31
2017-09-19T19:33:40.228Z,100682.13
2017-09-19T19:36:09.315Z,100683.56
2017-09-19T19:38:38.382Z,100687.66
2017-09-19T19:41:08.442Z,100688.47
2017-09-19T19:43:37.558Z,100689.09
2017-09-19T19:46:06.637Z,100692.62
2017-09-19T19:48:35.705Z,100693.69
2017-09-19T19:51:04.788Z,100698.58
2017-09-19T19:53:34.630Z,100692.14
2017-09-19T19:56:03.709Z,100689.02
2017-09-19T19:58:32.842Z,100696.73
2017-09-19T20:01:01.934Z,100698.81
2017-09-19T20:03:31.018Z,100695.83
2017-09-19T20:06:00.078Z,100695.75
2017-09-19T20:08:29.159Z,100699.03
2017-09-19T20:10:58.531Z,100700.40
2017-09-19T20:13:28.099Z,100705.46
2017-09-19T20:15:57.395Z,100705.94
2017-09-19T20:18:27.255Z,100707.70
2017-09-19T20:20:56.355Z,100712.76
2017-09-19T20:23:25.788Z,100707.55
2017-09-19T20:25:54.854Z,100703.69
2017-09-19T20:28:23.884Z,100704.56
2017-09-19T20:30:52.984Z,100706.67
2017-09-19T20:33:22.874Z,100710.59
2017-09-19T20:35:51.950Z,100712.98
2017-09-19T20:38:21.023Z,100711.23
2017-09-19T20:40:50.121Z,100710.34
2017-09-19T20:43:19.241Z,100706.31
2017-09-19T20:45:48.337Z,100707.69
2017-09-19T20:48:17.759Z,100709.06
2017-09-19T20:50:46.796Z,100710.03
2017-09-19T20:53:15.898Z,100710.59
2017-09-19T20:55:45.719Z,100713.06
2017-09-19T20:58:14.790Z,100711.20
2017-09-19T21:00:43.895Z,100710.00
2017-09-19T21:03:18.483Z,100717.06
2017-09-19T21:05:53.188Z,100712.74
2017-09-19T21:08:28.461Z,100710.89
2017-09-19T21:11:03.729Z,100716.81
2017-09-19T21:13:38.535Z,100708.16
2017-09-19T21:16:13.249Z,100711.78
2017-09-19T21:18:47.806Z,100709.35
2017-09-19T21:21:16.875Z,100710.41
2017-09-19T21:23:47.053Z,100709.70
2017-09-19T21:26:17.182Z,100712.17
2017-09-19T21:28:46.261Z,100710.48
2017-09-19T21:31:15.304Z,100710.65
2017-09-19T21:33:45.173Z,100702.79
2017-09-19T21:36:14.224Z,100708.34
2017-09-19T21:38:44.035Z,100709.86
2017-09-19T21:41:13.903Z,100705.37
2017-09-19T21:43:42.987Z,100701.28
2017-09-19T21:46:12.305Z,100695.44
2017-09-19T21:48:41.375Z,100700.24
2017-09-19T21:51:10.443Z,100697.42
2017-09-19T21:53:39.662Z,100693.99
2017-09-19T21:56:08.717Z,100691.73
2017-09-19T21:58:38.549Z,100690.06
2017-09-19T22:01:07.607Z,100693.34
2017-09-19T22:03:36.676Z,100689.52
2017-09-19T22:06:05.747Z,100691.73
2017-09-19T22:08:34.791Z,100696.08
2017-09-19T22:11:03.869Z,100690.07
2017-09-19T22:13:32.941Z,100693.12
2017-09-19T22:16:02.017Z,100691.92
2017-09-19T22:18:31.072Z,100695.27
2017-09-19T22:21:00.148Z,100692.23
2017-09-19T22:23:29.876Z,100690.22
2017-09-19T22:25:58.989Z,100693.44
2017-09-19T22:28:28.087Z,100692.46
2017-09-19T22:30:57.796Z,100691.84
2017-09-19T22:33:26.880Z,100688.84
2017-09-19T22:35:55.955Z,100701.67
2017-09-19T22:38:25.016Z,100705.05
2017-09-19T22:40:54.088Z,100699.60
2017-09-19T22:43:24.276Z,100694.64
2017-09-19T22:45:53.345Z,100697.53
2017-09-19T22:48:22.696Z,100702.47
2017-09-19T22:50:51.761Z,100702.56
2017-09-19T22:53:20.830Z,100704.41
2017-09-19T22:55:50.488Z,100704.07
2017-09-19T22:58:19.602Z,100709.06
2017-09-19T23:00:49.496Z,100708.66
2017-09-19T23:03:18.600Z,100704.02
2017-09-19T23:05:47.706Z,100709.12
2017-09-19T23:08:17.556Z,100705.92
2017-09-19T23:10:46.636Z,100697.98
2017-09-19T23:13:16.461Z,100694.79
2017-09-19T23:15:45.822Z,100698.95
2017-09-19T23:18:14.876Z,100700.25
2017-09-19T23:20:43.934Z,100693.84
2017-09-19T23:23:13.005Z,100695.90
2017-09-19T23:25:42.845Z,100696.31
2017-09-19T23:28:11.906Z,100697.44
2017-09-19T23:30:40.967Z,100689.16
2017-09-19T23:33:10.820Z,100690.78
2017-09-19T23:35:40.727Z,100689.11
2017-09-19T23:38:09.805Z,100691.66
2017-09-19T23:40:38.886Z,100693.43
2017-09-19T23:43:07.929Z,100681.87
2017-09-19T23:45:37.783Z,100687.58
2017-09-19T23:48:06.858Z,100688.20
2017-09-19T23:50:36.690Z,100697.48
2017-09-19T23:53:05.776Z,100692.77
2017-09-19T23:55:34.848Z,100694.28
2017-09-19T23:58:04.660Z,100702.47
